Yilaxi, China
Current Conditions -  °F | °C
As of 9:00 AM on Monday 24 Nov 2014 (Local Time) from ZYCC Reporting Station
Clear Clear  
Wind Chill: 15°   Ceiling: Unl
Heat Index: 23°   Visibility: 4mi
Dew Point:   Wind: 7mph
Humidity: 54%   Direction: 360°N
Pressure: 30.36"   Gusts: NA
Location:  43.77°N, 126.12°E
Report Text: ZYCC 240100Z 36003MPS 330V030 7000 NSC M05/M13 Q1028 NOSIG
Loading
Personal Weather Stations






























Interactive Weather Map New forecast layout! Learn more

10-Day Weather Forecast

Advertisements
Track Severe Weather on mobile